Flight Track Log - Related Links

Times and Time Zones

All times are in EDT time to prevent confusion due to time zone crossing. See the N693PD flight status page for this flight to view local times or setup timezone preferences in your user account.

Time Position Orientation Groundspeed Altitude Reporting Facility
EDT Latitude Longitude Course Direction KTS MPH feet Rate Location/Type
Thu 03:48:27 PM 31.2069 -81.5031 281° West 172 198 4,500  Level Jacksonville Center
Thu 03:49:27 PM 31.1992 -81.5544 260° West 113 130 5,900 1,388 Climbing Jacksonville Center
Thu 03:50:28 PM 31.2039 -81.6053 276° West 167 192 7,300 1,488 Climbing Jacksonville Center
Thu 03:51:28 PM 31.2231 -81.6633 291° West 174 200 8,900 1,361 Climbing Jacksonville Center
Thu 03:52:27 PM 31.2361 -81.7117 288° West 176 203 10,000 1,150 Climbing Jacksonville Center
Thu 03:53:00 PM 31.2581 -81.7986 281° West  Level FlightAware Approximate
Thu 03:53:28 PM 31.2511 -81.7697 287° West 181 208 11,200  Level Jacksonville Center
Thu 03:54:27 PM 31.2706 -81.8281 291° West 181 208 12,400 1,311 Climbing Jacksonville Center
Thu 03:55:27 PM 31.2856 -81.8836 288° West 181 208 13,800 1,240 Climbing Jacksonville Center
Thu 03:56:28 PM 31.3028 -81.9394 290° West 181 208 14,900 1,100 Climbing Jacksonville Center
Thu 03:57:27 PM 31.3197 -81.9928 290° West 181 208 16,000 1,059 Climbing Jacksonville Center
Thu 03:58:27 PM 31.3347 -82.0461 288° West 181 208 17,000 950 Climbing Jacksonville Center
Thu 03:59:27 PM 31.3478 -82.0994 286° West 181 208 17,900 500 Climbing Jacksonville Center
Thu 04:00:27 PM 31.3958 -82.1356 327° Northwest 188 216 18,000 50 Climbing Jacksonville Center
Thu 04:01:27 PM 31.4525 -82.1644 336° Northwest 194 223 18,000  Level Jacksonville Center
Thu 04:02:27 PM 31.5111 -82.2028 331° Northwest 225 259 18,000 50 Level Jacksonville Center
Thu 04:03:28 PM 31.5697 -82.2367 334° Northwest 230 265 18,100  Climbing Jacksonville Center
Thu 04:04:27 PM 31.6264 -82.2656 337° Northwest 230 265 18,000 -50 Descending Jacksonville Center
Thu 04:05:28 PM 31.6911 -82.3067 332° Northwest 225 259 18,000 -200 Level Jacksonville Center
Thu 04:06:27 PM 31.7542 -82.3428 334° Northwest 232 267 17,600 -706 Descending Jacksonville Center
Thu 04:07:27 PM 31.8169 -82.3792 334° Northwest 242 278 16,600 -800 Descending Jacksonville Center
Thu 04:08:27 PM 31.8858 -82.4203 333° Northwest 250 288 16,000 -300 Descending Jacksonville Center
Thu 04:09:27 PM 31.9467 -82.4567 333° Northwest 261 300 16,000  Level Jacksonville Center
Thu 04:10:27 PM 32.0094 -82.4933 334° Northwest 254 292 16,000  Level Jacksonville Center
Thu 04:11:27 PM 32.0700 -82.5322 331° Northwest 247 284 16,000  Level Jacksonville Center
Thu 04:12:27 PM 32.1264 -82.5664 333° Northwest 247 284 16,000  Level Jacksonville Center
Thu 04:12:56 PM 32.1511 -82.5817 332° Northwest 247 284 16,000  Level Atlanta Center
Thu 04:13:56 PM 32.2100 -82.6175 333° Northwest 254 292 16,000  Level Atlanta Center
Thu 04:14:56 PM 32.2689 -82.6511 334° Northwest 247 284 16,000  Level Atlanta Center
Thu 04:15:56 PM 32.3319 -82.6917 331° Northwest 247 284 16,000  Level Atlanta Center
Thu 04:16:56 PM 32.3908 -82.7278 333° Northwest 247 284 16,000  Level Atlanta Center
Thu 04:17:56 PM 32.4497 -82.7639 333° Northwest 247 284 16,000  Level Atlanta Center
Thu 04:18:56 PM 32.5106 -82.8022 332° Northwest 247 284 16,000  Level Atlanta Center
Thu 04:19:56 PM 32.5694 -82.8361 334° Northwest 247 284 16,000  Level Atlanta Center
Thu 04:20:56 PM 32.6178 -82.8897 317° Northwest 247 284 16,000  Level Atlanta Center
Thu 04:21:56 PM 32.6706 -82.9408 321° Northwest 242 278 16,000  Level Atlanta Center
Thu 04:22:56 PM 32.7231 -82.9919 321° Northwest 242 278 16,000  Level Atlanta Center
Thu 04:23:56 PM 32.7736 -83.0458 318° Northwest 242 278 16,000 -50 Level Atlanta Center
Thu 04:24:56 PM 32.8219 -83.0897 323° Northwest 236 272 15,900 -550 Descending Atlanta Center
Thu 04:25:56 PM 32.8789 -83.1483 319° Northwest 242 278 14,900 -950 Descending Atlanta Center
Thu 04:26:56 PM 32.9336 -83.2047 319° Northwest 253 291 14,000 -950 Descending Atlanta Center
Thu 04:27:56 PM 32.9967 -83.2711 319° Northwest 268 308 13,000 -1,050 Descending Atlanta Center
Thu 04:28:56 PM 33.0617 -83.3300 323° Northwest 276 318 11,900 -950 Descending Atlanta Center
Thu 04:29:56 PM 33.1119 -83.3867 317° Northwest 270 311 11,100 -900 Descending Atlanta Center
Thu 04:30:56 PM 33.1708 -83.4433 321° Northwest 270 311 10,100 -1,000 Descending Atlanta Center
Thu 04:31:56 PM 33.2253 -83.5000 319° Northwest 264 304 9,100 -1,000 Descending Atlanta Center
Thu 04:32:56 PM 33.2839 -83.5567 321° Northwest 264 304 8,100 -471 Descending Atlanta Center
Thu 04:34:16 PM 33.3667 -83.6333 322° Northwest 254 292 8,000 -43 Descending Atlanta TRACON
Thu 04:35:16 PM 33.4167 -83.6833 320° Northwest 253 291 8,000 -476 Level Atlanta TRACON
Thu 04:36:22 PM 33.4833 -83.7333 328° Northwest 258 297 7,000 -950 Descending Atlanta TRACON
Thu 04:37:16 PM 33.5500 -83.7667 337° Northwest 258 297 6,100 -950 Descending Atlanta TRACON
Thu 04:38:22 PM 33.6167 -83.8000 337° Northwest 244 281 5,100 -950 Descending Atlanta TRACON
Thu 04:39:16 PM 33.6667 -83.8333 331° Northwest 240 276 4,200 -579 Descending Atlanta TRACON
Thu 04:40:16 PM 33.7167 -83.8667 331° Northwest 234 269 4,000 -100 Descending Atlanta TRACON
Thu 04:41:16 PM 33.7833 -83.9000 337° Northwest 231 266 4,000  Level Atlanta TRACON
Thu 04:42:16 PM 33.8333 -83.9333 331° Northwest 232 267 4,000  Level Atlanta TRACON
Thu 04:43:16 PM 33.9000 -83.9833 328° Northwest 231 266 4,000 -400 Level Atlanta TRACON
Thu 04:44:16 PM 33.9167 -84.0333 292° West 225 259 3,200 -526 Descending Atlanta TRACON
Thu 04:45:10 PM 33.9333 -84.1000 287° West 223 257 3,000 -100 Descending Atlanta TRACON
Thu 04:46:16 PM 33.9500 -84.1833 284° West 213 245 3,000  Level Atlanta TRACON
Thu 04:47:16 PM 33.9667 -84.2333 292° West 168 193 3,000 -350 Level Atlanta TRACON
Thu 04:48:16 PM 33.9333 -84.2667 220° Southwest 136 157 2,300 -762 Descending Atlanta TRACON
Thu 04:49:22 PM 33.9000 -84.2833 203° Southwest 117 135 1,400 -818 Descending Atlanta TRACON
Thu 04:51:00 PM 33.8667 -84.3000 239° Southwest  Level FlightAware Approximate
Thu 04:58:00 PM 33.8756 -84.3020 239° Southwest  Level Estimated

Login

Don't have an account? Register now (free) for customized features, flight alerts, and more!